createdAt,value
2023-02-23T00:02:23.011Z,34.60
2023-02-23T00:04:51.439Z,33.07
2023-02-23T00:07:21.072Z,34.13
2023-02-23T00:09:51.041Z,31.50
2023-02-23T00:12:20.952Z,33.23
2023-02-23T00:14:50.841Z,34.00
2023-02-23T00:17:19.026Z,31.30
2023-02-23T00:19:49.582Z,30.87
2023-02-23T00:22:18.777Z,34.33
2023-02-23T00:24:48.274Z,35.73
2023-02-23T00:27:18.806Z,33.30
2023-02-23T00:29:49.793Z,31.77
2023-02-23T00:32:21.276Z,38.90
2023-02-23T00:34:50.751Z,33.60
2023-02-23T00:37:19.672Z,33.47
2023-02-23T00:39:48.299Z,29.83
2023-02-23T00:42:16.802Z,34.23
2023-02-23T00:44:47.774Z,31.83
2023-02-23T00:47:16.224Z,31.23
2023-02-23T00:49:46.408Z,31.87
2023-02-23T00:52:15.847Z,31.97
2023-02-23T00:54:44.635Z,32.67
2023-02-23T00:57:12.744Z,31.10
2023-02-23T00:59:41.405Z,32.73
2023-02-23T01:02:09.808Z,32.70
2023-02-23T01:04:38.438Z,32.77
2023-02-23T01:07:08.334Z,33.33
2023-02-23T01:09:36.793Z,30.97
2023-02-23T01:12:07.694Z,32.10
2023-02-23T01:14:37.829Z,32.37
2023-02-23T01:17:06.109Z,35.27
2023-02-23T01:19:34.343Z,31.97
2023-02-23T01:22:02.948Z,34.67
2023-02-23T01:24:32.630Z,29.83
2023-02-23T01:27:00.841Z,35.43
2023-02-23T01:29:29.334Z,34.60
2023-02-23T01:31:57.783Z,32.40
2023-02-23T01:34:26.325Z,33.00
2023-02-23T01:36:54.491Z,29.13
2023-02-23T01:39:23.628Z,33.70
2023-02-23T01:41:54.371Z,37.93
2023-02-23T01:44:59.813Z,32.37
2023-02-23T01:47:28.225Z,31.57
2023-02-23T01:49:56.665Z,31.00
2023-02-23T01:52:24.781Z,32.80
2023-02-23T01:54:57.046Z,32.00
2023-02-23T01:57:27.339Z,29.50
2023-02-23T01:59:56.416Z,34.07
2023-02-23T02:02:34.057Z,32.53
2023-02-23T02:05:05.753Z,32.80
2023-02-23T02:07:36.543Z,30.27
2023-02-23T02:10:33.865Z,29.67
2023-02-23T02:13:06.096Z,35.27
2023-02-23T02:15:40.948Z,30.63
2023-02-23T02:18:23.608Z,34.23
2023-02-23T02:21:26.806Z,32.13
2023-02-23T02:24:31.107Z,31.60
2023-02-23T02:27:18.322Z,32.80
2023-02-23T02:30:29.145Z,32.40
2023-02-23T02:33:32.276Z,34.47
2023-02-23T02:36:35.303Z,33.97
2023-02-23T02:39:17.619Z,32.57
2023-02-23T02:41:53.786Z,29.43
2023-02-23T02:44:31.584Z,34.07
2023-02-23T02:47:08.231Z,31.50
2023-02-23T02:49:46.407Z,32.40
2023-02-23T02:52:20.760Z,32.37
2023-02-23T02:54:54.581Z,36.37
2023-02-23T02:57:27.124Z,33.20
2023-02-23T03:00:13.759Z,34.53
2023-02-23T03:03:00.302Z,30.47
2023-02-23T03:05:49.348Z,28.13
2023-02-23T03:08:40.477Z,30.53
2023-02-23T03:11:29.847Z,28.83
2023-02-23T03:14:28.278Z,27.40
2023-02-23T03:17:21.718Z,27.27
2023-02-23T03:20:13.359Z,31.00
2023-02-23T03:23:08.765Z,31.77
2023-02-23T03:26:07.149Z,30.57
2023-02-23T03:29:03.718Z,31.70
2023-02-23T03:31:58.839Z,31.10
2023-02-23T03:34:49.668Z,33.07
2023-02-23T03:37:42.010Z,32.80
2023-02-23T03:40:35.279Z,30.77
2023-02-23T03:43:24.398Z,31.40
2023-02-23T03:46:15.012Z,29.37
2023-02-23T03:49:04.415Z,35.77
2023-02-23T03:51:55.900Z,30.07
2023-02-23T03:54:49.168Z,31.00
2023-02-23T03:57:41.420Z,31.57
2023-02-23T04:00:33.722Z,35.80
2023-02-23T04:03:24.674Z,32.33
2023-02-23T04:06:13.550Z,32.90
2023-02-23T04:09:00.014Z,30.87
2023-02-23T04:11:50.193Z,29.20
2023-02-23T04:14:22.041Z,38.90
2023-02-23T04:16:49.617Z,34.30
2023-02-23T04:19:19.426Z,35.20
2023-02-23T04:21:47.822Z,33.23
2023-02-23T04:24:15.872Z,33.53
2023-02-23T04:26:45.637Z,33.17
2023-02-23T04:29:14.419Z,32.43
2023-02-23T04:31:43.938Z,32.07
2023-02-23T04:34:12.261Z,32.30
2023-02-23T04:36:42.885Z,33.50
2023-02-23T04:39:10.900Z,34.73
2023-02-23T04:41:39.018Z,57.47
2023-02-23T04:44:07.414Z,36.77
2023-02-23T04:46:35.626Z,126.33
2023-02-23T04:49:03.938Z,44.70
2023-02-23T04:51:34.213Z,39.10
2023-02-23T04:54:04.220Z,35.57
2023-02-23T04:56:32.794Z,36.60
2023-02-23T04:59:01.623Z,39.17
2023-02-23T05:01:30.638Z,34.97
2023-02-23T05:03:59.058Z,37.13
2023-02-23T05:06:27.689Z,35.90
2023-02-23T05:08:56.097Z,36.10
2023-02-23T05:11:26.754Z,35.40
2023-02-23T05:13:55.095Z,36.97
2023-02-23T05:16:23.908Z,33.90
2023-02-23T05:18:52.327Z,36.53
2023-02-23T05:21:20.806Z,39.63
2023-02-23T05:23:49.430Z,41.73
2023-02-23T05:26:18.294Z,39.37
2023-02-23T05:28:48.105Z,38.87
2023-02-23T05:31:17.729Z,37.73
2023-02-23T05:33:46.607Z,37.97
2023-02-23T05:36:17.234Z,38.47
2023-02-23T05:38:46.514Z,36.67
2023-02-23T05:41:17.014Z,38.53
2023-02-23T05:43:47.618Z,38.07
2023-02-23T05:46:18.513Z,40.37
2023-02-23T05:48:47.655Z,39.23
2023-02-23T05:51:18.017Z,41.17
2023-02-23T05:53:46.873Z,36.40
2023-02-23T05:56:20.628Z,37.07
2023-02-23T05:58:51.419Z,36.90
2023-02-23T06:01:21.190Z,40.90
2023-02-23T06:03:50.181Z,40.43
2023-02-23T06:06:20.471Z,40.00
2023-02-23T06:08:48.765Z,52.67
2023-02-23T06:11:17.503Z,65.73
2023-02-23T06:13:46.264Z,54.63
2023-02-23T06:16:16.019Z,51.57
2023-02-23T06:18:44.246Z,44.47
2023-02-23T06:21:12.627Z,45.43
2023-02-23T06:23:40.710Z,42.53
2023-02-23T06:26:09.039Z,42.73
2023-02-23T06:28:37.427Z,40.60
2023-02-23T06:31:07.076Z,43.07
2023-02-23T06:33:37.448Z,43.57
2023-02-23T06:36:07.003Z,46.20
2023-02-23T06:38:35.660Z,48.60
2023-02-23T06:41:08.702Z,44.90
2023-02-23T06:43:36.933Z,52.77
2023-02-23T06:46:06.437Z,46.57
2023-02-23T06:48:35.748Z,49.03
2023-02-23T06:51:05.514Z,44.67
2023-02-23T06:53:33.788Z,49.47
2023-02-23T06:56:02.188Z,47.77
2023-02-23T06:58:30.738Z,50.37
2023-02-23T07:00:59.794Z,52.20
2023-02-23T07:03:27.946Z,53.90
2023-02-23T07:05:56.454Z,51.30
2023-02-23T07:08:26.451Z,56.50
2023-02-23T07:10:55.161Z,56.10
2023-02-23T07:13:23.554Z,53.57
2023-02-23T07:15:51.965Z,57.23
2023-02-23T07:18:20.467Z,59.50
2023-02-23T07:20:49.067Z,59.33
2023-02-23T07:23:17.391Z,64.70
2023-02-23T07:25:47.403Z,65.90
2023-02-23T07:28:15.651Z,62.30
2023-02-23T07:30:44.051Z,60.57
2023-02-23T07:33:12.192Z,67.03
2023-02-23T07:35:40.521Z,77.40
2023-02-23T07:38:08.581Z,69.23
2023-02-23T07:40:36.841Z,61.73
2023-02-23T07:43:06.793Z,67.30
2023-02-23T07:45:37.321Z,70.67
2023-02-23T07:48:05.681Z,67.20
2023-02-23T07:50:33.819Z,68.03
2023-02-23T07:53:02.204Z,66.03
2023-02-23T07:55:30.592Z,59.67
2023-02-23T07:57:59.303Z,61.73
2023-02-23T08:00:29.538Z,64.60
2023-02-23T08:02:57.991Z,62.93
2023-02-23T08:05:26.794Z,68.27
2023-02-23T08:07:55.021Z,67.80
2023-02-23T08:10:23.290Z,73.70
2023-02-23T08:12:51.504Z,71.33
2023-02-23T08:15:19.990Z,66.73
2023-02-23T08:17:49.908Z,72.83
2023-02-23T08:20:18.473Z,66.77
2023-02-23T08:22:49.767Z,69.40
2023-02-23T08:25:18.779Z,67.00
2023-02-23T08:27:48.104Z,64.83
2023-02-23T08:30:17.336Z,67.17
2023-02-23T08:32:45.698Z,65.20
2023-02-23T08:35:16.451Z,65.23
2023-02-23T08:37:45.569Z,63.83
2023-02-23T08:40:15.652Z,67.73
2023-02-23T08:42:44.126Z,62.00
2023-02-23T08:45:14.685Z,63.53
2023-02-23T08:47:43.382Z,58.30
2023-02-23T08:50:13.776Z,62.60
2023-02-23T08:52:43.951Z,61.27
2023-02-23T08:55:14.192Z,68.83
2023-02-23T08:57:42.420Z,65.40
2023-02-23T09:00:14.505Z,63.90
2023-02-23T09:02:42.975Z,66.07
2023-02-23T09:05:11.932Z,66.10
2023-02-23T09:07:45.227Z,63.20
2023-02-23T09:10:16.417Z,57.97
2023-02-23T09:12:44.899Z,60.17
2023-02-23T09:15:13.952Z,58.20
2023-02-23T09:17:45.144Z,58.93
2023-02-23T09:20:16.106Z,59.17
2023-02-23T09:22:48.954Z,55.83
2023-02-23T09:25:19.549Z,59.23
2023-02-23T09:27:47.796Z,60.97
2023-02-23T09:30:18.040Z,59.50
2023-02-23T09:32:46.799Z,61.63
2023-02-23T09:35:18.086Z,55.73
2023-02-23T09:37:49.104Z,59.10
2023-02-23T09:40:23.493Z,62.50
2023-02-23T09:43:01.078Z,81.17
2023-02-23T09:45:38.779Z,102.37
2023-02-23T09:48:16.841Z,56.33
2023-02-23T09:50:49.149Z,69.30
2023-02-23T09:53:37.248Z,54.43
2023-02-23T09:56:13.894Z,55.67
2023-02-23T09:58:42.604Z,82.97
2023-02-23T10:01:35.534Z,51.87
2023-02-23T10:04:12.193Z,54.37
2023-02-23T10:06:44.854Z,55.40
2023-02-23T10:09:24.416Z,70.73
2023-02-23T10:12:01.126Z,66.73
2023-02-23T10:14:53.406Z,62.03
2023-02-23T10:17:31.082Z,83.40
2023-02-23T10:20:09.207Z,62.70
2023-02-23T10:22:39.002Z,58.57
2023-02-23T10:25:14.954Z,59.17
2023-02-23T10:27:46.863Z,60.57
2023-02-23T10:30:21.078Z,62.77
2023-02-23T10:32:55.485Z,59.17
2023-02-23T10:35:25.381Z,63.90
2023-02-23T10:37:55.954Z,59.60
2023-02-23T10:40:31.110Z,59.53
2023-02-23T10:43:01.342Z,58.90
2023-02-23T10:45:32.403Z,55.10
2023-02-23T10:48:05.535Z,58.20
2023-02-23T10:50:35.721Z,52.70
2023-02-23T10:53:16.627Z,45.83
2023-02-23T10:55:49.048Z,50.47
2023-02-23T10:58:19.180Z,48.93
2023-02-23T11:00:55.927Z,43.60
2023-02-23T11:03:28.810Z,40.83
2023-02-23T11:05:58.572Z,36.63
2023-02-23T11:08:30.819Z,40.23
2023-02-23T11:11:29.004Z,35.07
2023-02-23T11:13:59.014Z,26.03
2023-02-23T11:16:31.027Z,27.07
2023-02-23T11:19:01.892Z,29.17
2023-02-23T11:21:33.884Z,26.03
2023-02-23T11:24:14.591Z,25.30
2023-02-23T11:26:46.019Z,22.93
2023-02-23T11:29:22.220Z,22.07
2023-02-23T11:31:53.945Z,20.57
2023-02-23T11:34:30.342Z,19.37
2023-02-23T11:37:05.787Z,21.97
2023-02-23T11:39:36.006Z,17.30
2023-02-23T11:42:19.559Z,17.73
2023-02-23T11:45:06.996Z,19.67
2023-02-23T11:47:41.326Z,19.60
2023-02-23T11:50:24.056Z,20.10
2023-02-23T11:52:57.087Z,20.27
2023-02-23T11:55:26.231Z,21.80
2023-02-23T11:58:10.334Z,19.47
2023-02-23T12:00:40.488Z,20.10
2023-02-23T12:03:09.123Z,17.93
2023-02-23T12:05:38.544Z,20.70
2023-02-23T12:08:15.308Z,20.70
2023-02-23T12:10:45.470Z,17.13
2023-02-23T12:13:27.177Z,19.43
2023-02-23T12:16:04.199Z,17.37
2023-02-23T12:18:43.195Z,16.93
2023-02-23T12:21:26.578Z,18.70
2023-02-23T12:24:07.256Z,19.40
2023-02-23T12:26:43.709Z,15.37
2023-02-23T12:29:30.579Z,17.30
2023-02-23T12:32:06.746Z,18.70
2023-02-23T12:34:44.393Z,16.07
2023-02-23T12:37:29.450Z,18.63
2023-02-23T12:40:04.322Z,16.17
2023-02-23T12:42:42.602Z,20.83
2023-02-23T12:45:22.478Z,19.73
2023-02-23T12:47:57.702Z,18.23
2023-02-23T12:50:30.581Z,17.40
2023-02-23T12:53:01.652Z,17.37
2023-02-23T12:55:38.571Z,17.63
2023-02-23T12:58:16.542Z,14.77
2023-02-23T13:00:54.291Z,16.70
2023-02-23T13:04:02.853Z,19.40
2023-02-23T13:06:38.241Z,18.40
2023-02-23T13:09:20.228Z,14.93
2023-02-23T13:12:02.247Z,14.93
2023-02-23T13:14:39.454Z,15.27
2023-02-23T13:17:22.764Z,14.63
2023-02-23T13:19:55.587Z,16.27
2023-02-23T13:22:33.850Z,14.90
2023-02-23T13:25:21.905Z,12.90
2023-02-23T13:27:54.223Z,14.37
2023-02-23T13:30:24.264Z,15.10
2023-02-23T13:32:55.815Z,15.50
2023-02-23T13:35:26.647Z,14.53
2023-02-23T13:37:59.850Z,17.67
2023-02-23T13:40:35.838Z,16.27
2023-02-23T13:43:17.872Z,17.23
2023-02-23T13:45:57.137Z,17.27
2023-02-23T13:48:41.818Z,14.60
2023-02-23T13:51:27.131Z,17.97
2023-02-23T13:54:02.604Z,15.50
2023-02-23T13:56:33.128Z,17.10
2023-02-23T13:59:03.507Z,16.53
2023-02-23T14:01:34.306Z,16.50
2023-02-23T14:04:08.236Z,17.10
2023-02-23T14:06:37.787Z,19.83
2023-02-23T14:09:11.495Z,18.07
2023-02-23T14:12:03.543Z,17.57
2023-02-23T14:14:44.472Z,17.57
2023-02-23T14:17:32.961Z,15.53
2023-02-23T14:20:24.386Z,16.13
2023-02-23T14:23:29.791Z,18.23
2023-02-23T14:26:19.772Z,17.30
2023-02-23T14:28:50.827Z,15.20
2023-02-23T14:31:26.092Z,18.50
2023-02-23T14:34:03.509Z,17.43
2023-02-23T14:36:48.114Z,17.20
2023-02-23T14:39:24.569Z,16.70
2023-02-23T14:41:56.183Z,17.17
2023-02-23T14:44:31.133Z,16.77
2023-02-23T14:47:04.343Z,16.37
2023-02-23T14:49:37.204Z,18.67
2023-02-23T14:52:15.769Z,18.10
2023-02-23T14:54:43.885Z,18.37
2023-02-23T14:57:19.917Z,17.43
2023-02-23T14:59:54.637Z,19.27
2023-02-23T15:02:25.544Z,19.03
2023-02-23T15:04:53.989Z,19.97
2023-02-23T15:07:32.339Z,21.63
2023-02-23T15:10:02.721Z,20.77
2023-02-23T15:12:36.075Z,20.97
2023-02-23T15:15:10.567Z,21.57
2023-02-23T15:17:42.066Z,21.93
2023-02-23T15:20:17.326Z,22.13
2023-02-23T15:22:50.221Z,21.10
2023-02-23T15:25:21.356Z,21.87
2023-02-23T15:27:52.057Z,21.30
2023-02-23T15:30:27.992Z,24.43
2023-02-23T15:33:04.001Z,23.70
2023-02-23T15:35:34.168Z,23.63
2023-02-23T15:38:18.063Z,26.97
2023-02-23T15:40:57.279Z,25.27
2023-02-23T15:43:25.914Z,25.23
2023-02-23T15:45:55.997Z,24.53
2023-02-23T15:48:30.420Z,28.10
2023-02-23T15:50:59.634Z,29.47
2023-02-23T15:53:36.093Z,25.40
2023-02-23T15:56:12.800Z,26.20
2023-02-23T15:58:55.969Z,26.00
2023-02-23T16:01:27.350Z,30.83
2023-02-23T16:04:03.236Z,28.03
2023-02-23T16:06:39.788Z,25.37
2023-02-23T16:09:22.179Z,23.47
2023-02-23T16:11:53.064Z,23.37
2023-02-23T16:14:23.987Z,25.13
2023-02-23T16:17:09.877Z,22.03
2023-02-23T16:19:41.916Z,20.90
2023-02-23T16:22:21.624Z,24.00
2023-02-23T16:25:02.220Z,25.00
2023-02-23T16:27:31.559Z,21.47
2023-02-23T16:30:06.949Z,20.40
2023-02-23T16:32:40.056Z,20.20
2023-02-23T16:35:17.307Z,20.13
2023-02-23T16:38:00.180Z,19.63
2023-02-23T16:40:33.361Z,19.47
2023-02-23T16:43:01.825Z,18.93
2023-02-23T16:45:30.774Z,18.57
2023-02-23T16:48:03.262Z,17.40
2023-02-23T16:50:33.851Z,20.57
2023-02-23T16:53:03.660Z,18.70
2023-02-23T16:55:40.106Z,18.07
2023-02-23T16:58:18.403Z,16.33
2023-02-23T17:00:52.002Z,18.30
2023-02-23T17:03:24.578Z,17.10
2023-02-23T17:05:53.641Z,17.93
2023-02-23T17:08:22.309Z,18.57
2023-02-23T17:10:54.835Z,18.00
2023-02-23T17:13:25.205Z,18.70
2023-02-23T17:15:56.548Z,18.23
2023-02-23T17:18:26.688Z,18.27
2023-02-23T17:20:57.246Z,16.83
2023-02-23T17:23:27.284Z,17.00
2023-02-23T17:25:58.700Z,19.07
2023-02-23T17:28:28.678Z,20.30
2023-02-23T17:30:59.537Z,18.47
2023-02-23T17:33:28.237Z,18.70
2023-02-23T17:35:56.449Z,17.23
2023-02-23T17:38:33.971Z,19.63
2023-02-23T17:41:05.231Z,20.27
2023-02-23T17:43:34.931Z,18.23
2023-02-23T17:46:03.338Z,16.13
2023-02-23T17:48:34.712Z,18.23
2023-02-23T17:51:04.961Z,17.77
2023-02-23T17:53:34.330Z,15.97
2023-02-23T17:56:04.244Z,18.20
2023-02-23T17:58:32.581Z,19.83
2023-02-23T18:01:03.100Z,18.83
2023-02-23T18:03:33.464Z,21.10
2023-02-23T18:06:03.273Z,19.73
2023-02-23T18:08:32.365Z,21.10
2023-02-23T18:11:01.363Z,19.67
2023-02-23T18:13:33.837Z,21.10
2023-02-23T18:16:04.638Z,23.43
2023-02-23T18:18:33.964Z,24.20
2023-02-23T18:21:03.117Z,22.13
2023-02-23T18:23:33.770Z,25.93
2023-02-23T18:26:07.617Z,24.23
2023-02-23T18:28:41.237Z,25.73
2023-02-23T18:31:09.775Z,25.43
2023-02-23T18:33:41.193Z,29.43
2023-02-23T18:36:17.896Z,29.80
2023-02-23T18:38:46.231Z,27.53
2023-02-23T18:41:14.534Z,26.80
2023-02-23T18:43:44.298Z,25.60
2023-02-23T18:46:13.923Z,30.57
2023-02-23T18:48:42.566Z,29.70
2023-02-23T18:51:14.779Z,25.57
2023-02-23T18:53:44.743Z,29.07
2023-02-23T18:56:15.127Z,26.23
2023-02-23T18:58:46.454Z,24.70
2023-02-23T19:01:20.889Z,25.70
2023-02-23T19:03:50.193Z,27.53
2023-02-23T19:06:18.786Z,28.10
2023-02-23T19:08:54.081Z,29.50
2023-02-23T19:11:24.908Z,31.47
2023-02-23T19:13:55.223Z,32.17
2023-02-23T19:16:26.598Z,31.67
2023-02-23T19:18:56.333Z,32.40
2023-02-23T19:21:24.658Z,35.93
2023-02-23T19:23:53.796Z,30.50
2023-02-23T19:26:22.956Z,37.43
2023-02-23T19:28:51.375Z,36.23
2023-02-23T19:31:23.405Z,35.53
2023-02-23T19:33:52.351Z,36.53
2023-02-23T19:36:23.624Z,39.20
2023-02-23T19:38:52.082Z,40.50
2023-02-23T19:41:22.077Z,39.17
2023-02-23T19:43:51.396Z,42.43
2023-02-23T19:46:23.121Z,41.83
2023-02-23T19:48:52.116Z,41.60
2023-02-23T19:51:21.171Z,41.07
2023-02-23T19:53:49.749Z,42.87
2023-02-23T19:56:18.727Z,39.37
2023-02-23T19:58:48.753Z,42.90
2023-02-23T20:01:19.228Z,46.67
2023-02-23T20:03:55.682Z,50.17
2023-02-23T20:06:26.209Z,47.00
2023-02-23T20:08:55.419Z,43.80
2023-02-23T20:11:24.362Z,45.43
2023-02-23T20:13:53.158Z,48.03
2023-02-23T20:16:29.891Z,47.03
2023-02-23T20:19:01.409Z,48.57
2023-02-23T20:21:32.654Z,48.17
2023-02-23T20:24:01.800Z,46.03
2023-02-23T20:26:34.626Z,44.37
2023-02-23T20:29:03.447Z,47.80
2023-02-23T20:31:36.264Z,47.77
2023-02-23T20:34:08.034Z,51.27
2023-02-23T20:36:38.511Z,46.10
2023-02-23T20:39:07.117Z,48.67
2023-02-23T20:41:35.848Z,50.57
2023-02-23T20:44:04.467Z,47.40
2023-02-23T20:46:32.895Z,49.53
2023-02-23T20:49:03.736Z,53.03
2023-02-23T20:51:37.540Z,49.60
2023-02-23T20:54:06.541Z,47.20
2023-02-23T20:56:35.568Z,42.17
2023-02-23T20:59:05.525Z,40.57
2023-02-23T21:01:34.405Z,41.37
2023-02-23T21:04:03.017Z,47.43
2023-02-23T21:06:34.793Z,40.60
2023-02-23T21:09:17.157Z,39.10
2023-02-23T21:11:46.532Z,40.70
2023-02-23T21:14:14.748Z,41.57
2023-02-23T21:16:45.484Z,39.03
2023-02-23T21:19:14.520Z,38.97
2023-02-23T21:21:47.156Z,38.20
2023-02-23T21:24:17.778Z,36.60
2023-02-23T21:26:46.710Z,36.27
2023-02-23T21:29:17.119Z,38.10
2023-02-23T21:31:46.502Z,37.00
2023-02-23T21:34:15.738Z,36.70
2023-02-23T21:36:45.538Z,34.83
2023-02-23T21:39:14.268Z,32.60
2023-02-23T21:41:42.719Z,32.03
2023-02-23T21:44:11.116Z,35.47
2023-02-23T21:46:40.606Z,34.93
2023-02-23T21:49:10.016Z,34.17
2023-02-23T21:51:38.741Z,29.50
2023-02-23T21:54:08.904Z,28.97
2023-02-23T21:56:37.717Z,33.57
2023-02-23T21:59:09.521Z,32.10
2023-02-23T22:01:40.938Z,29.00
2023-02-23T22:04:12.987Z,29.73
2023-02-23T22:06:43.382Z,28.70
2023-02-23T22:09:15.993Z,31.83
2023-02-23T22:11:47.923Z,31.90
2023-02-23T22:14:18.180Z,34.60
2023-02-23T22:16:47.870Z,30.27
2023-02-23T22:19:16.843Z,31.20
2023-02-23T22:21:48.042Z,34.70
2023-02-23T22:24:19.041Z,30.50
2023-02-23T22:26:54.032Z,36.30
2023-02-23T22:29:23.514Z,32.70
2023-02-23T22:31:53.195Z,30.63
2023-02-23T22:34:22.272Z,29.57
2023-02-23T22:36:50.677Z,25.17
2023-02-23T22:39:20.446Z,29.03
2023-02-23T22:41:48.881Z,28.13
2023-02-23T22:44:21.472Z,23.50
2023-02-23T22:46:50.125Z,24.20
2023-02-23T22:49:20.311Z,24.37
2023-02-23T22:51:50.607Z,25.67
2023-02-23T22:54:21.335Z,25.53
2023-02-23T22:56:49.729Z,25.03
2023-02-23T22:59:20.768Z,25.93
2023-02-23T23:01:50.527Z,30.20
2023-02-23T23:04:22.128Z,28.63
2023-02-23T23:06:51.061Z,28.93
2023-02-23T23:09:21.381Z,29.73
2023-02-23T23:11:51.570Z,29.37
2023-02-23T23:14:20.753Z,34.07
2023-02-23T23:16:49.922Z,32.17
2023-02-23T23:19:24.356Z,31.93
2023-02-23T23:21:55.471Z,27.27
2023-02-23T23:24:26.625Z,32.20
2023-02-23T23:26:59.572Z,28.27
2023-02-23T23:29:29.844Z,27.07
2023-02-23T23:31:58.370Z,25.50
2023-02-23T23:34:28.242Z,28.07
2023-02-23T23:36:56.964Z,26.37
2023-02-23T23:39:29.508Z,24.43
2023-02-23T23:41:57.731Z,24.90
2023-02-23T23:44:29.664Z,26.33
2023-02-23T23:46:59.801Z,23.97
2023-02-23T23:49:29.798Z,29.83
2023-02-23T23:51:59.185Z,28.13
2023-02-23T23:54:34.108Z,24.43
2023-02-23T23:57:03.055Z,25.60
2023-02-23T23:59:31.995Z,26.00
